sensor_id;sensor_type;location;lat;lon;timestamp;P1;durP1;ratioP1;P2;durP2;ratioP2
22543;SDS011;11438;52.044;8.716;2023-12-20T00:02:11;6.43;;;3.67;;
22543;SDS011;11438;52.044;8.716;2023-12-20T00:04:37;6.00;;;4.15;;
22543;SDS011;11438;52.044;8.716;2023-12-20T00:07:02;5.97;;;4.20;;
22543;SDS011;11438;52.044;8.716;2023-12-20T00:09:28;6.68;;;3.83;;
22543;SDS011;11438;52.044;8.716;2023-12-20T00:11:53;6.47;;;4.18;;
22543;SDS011;11438;52.044;8.716;2023-12-20T00:14:19;7.43;;;4.43;;
22543;SDS011;11438;52.044;8.716;2023-12-20T00:16:45;6.43;;;4.38;;
22543;SDS011;11438;52.044;8.716;2023-12-20T00:19:10;6.93;;;4.40;;
22543;SDS011;11438;52.044;8.716;2023-12-20T00:21:36;6.72;;;4.80;;
22543;SDS011;11438;52.044;8.716;2023-12-20T00:24:01;7.32;;;4.45;;
22543;SDS011;11438;52.044;8.716;2023-12-20T00:26:27;6.43;;;4.25;;
22543;SDS011;11438;52.044;8.716;2023-12-20T00:28:53;5.93;;;4.05;;
22543;SDS011;11438;52.044;8.716;2023-12-20T00:31:18;5.97;;;4.63;;
22543;SDS011;11438;52.044;8.716;2023-12-20T00:33:44;7.05;;;4.32;;
22543;SDS011;11438;52.044;8.716;2023-12-20T00:36:11;6.03;;;4.13;;
22543;SDS011;11438;52.044;8.716;2023-12-20T00:38:36;8.73;;;4.22;;
22543;SDS011;11438;52.044;8.716;2023-12-20T00:41:02;6.25;;;3.63;;
22543;SDS011;11438;52.044;8.716;2023-12-20T00:43:27;5.63;;;3.15;;
22543;SDS011;11438;52.044;8.716;2023-12-20T00:45:53;4.78;;;3.30;;
22543;SDS011;11438;52.044;8.716;2023-12-20T00:48:18;6.78;;;3.47;;
22543;SDS011;11438;52.044;8.716;2023-12-20T00:50:44;5.55;;;3.00;;
22543;SDS011;11438;52.044;8.716;2023-12-20T00:53:09;6.10;;;2.50;;
22543;SDS011;11438;52.044;8.716;2023-12-20T00:55:35;4.03;;;2.55;;
22543;SDS011;11438;52.044;8.716;2023-12-20T00:58:00;5.75;;;2.55;;
22543;SDS011;11438;52.044;8.716;2023-12-20T01:00:26;6.10;;;2.33;;
22543;SDS011;11438;52.044;8.716;2023-12-20T01:02:52;6.13;;;2.75;;
22543;SDS011;11438;52.044;8.716;2023-12-20T01:05:18;4.85;;;2.58;;
22543;SDS011;11438;52.044;8.716;2023-12-20T01:07:44;5.10;;;2.22;;
22543;SDS011;11438;52.044;8.716;2023-12-20T01:10:09;6.20;;;2.35;;
22543;SDS011;11438;52.044;8.716;2023-12-20T01:12:35;6.70;;;2.53;;
22543;SDS011;11438;52.044;8.716;2023-12-20T01:15:01;7.10;;;2.35;;
22543;SDS011;11438;52.044;8.716;2023-12-20T01:17:27;5.38;;;2.00;;
22543;SDS011;11438;52.044;8.716;2023-12-20T01:19:52;4.30;;;2.30;;
22543;SDS011;11438;52.044;8.716;2023-12-20T01:22:18;8.00;;;2.25;;
22543;SDS011;11438;52.044;8.716;2023-12-20T01:24:44;5.47;;;2.40;;
22543;SDS011;11438;52.044;8.716;2023-12-20T01:27:09;6.40;;;2.40;;
22543;SDS011;11438;52.044;8.716;2023-12-20T01:29:35;7.00;;;2.25;;
22543;SDS011;11438;52.044;8.716;2023-12-20T01:32:00;6.55;;;2.00;;
22543;SDS011;11438;52.044;8.716;2023-12-20T01:34:26;6.53;;;2.30;;
22543;SDS011;11438;52.044;8.716;2023-12-20T01:36:51;5.10;;;2.20;;
22543;SDS011;11438;52.044;8.716;2023-12-20T01:39:17;6.07;;;2.00;;
22543;SDS011;11438;52.044;8.716;2023-12-20T01:41:42;4.45;;;2.13;;
22543;SDS011;11438;52.044;8.716;2023-12-20T01:44:08;4.45;;;1.75;;
22543;SDS011;11438;52.044;8.716;2023-12-20T01:46:34;4.32;;;1.85;;
22543;SDS011;11438;52.044;8.716;2023-12-20T01:48:59;5.20;;;2.03;;
22543;SDS011;11438;52.044;8.716;2023-12-20T01:51:25;6.47;;;1.92;;
22543;SDS011;11438;52.044;8.716;2023-12-20T01:53:52;4.20;;;1.60;;
22543;SDS011;11438;52.044;8.716;2023-12-20T01:56:19;7.18;;;1.83;;
22543;SDS011;11438;52.044;8.716;2023-12-20T01:58:45;7.10;;;1.73;;
22543;SDS011;11438;52.044;8.716;2023-12-20T02:01:12;7.90;;;1.90;;
22543;SDS011;11438;52.044;8.716;2023-12-20T02:03:39;5.85;;;1.80;;
22543;SDS011;11438;52.044;8.716;2023-12-20T02:06:08;3.40;;;1.60;;
22543;SDS011;11438;52.044;8.716;2023-12-20T02:08:34;3.67;;;1.77;;
22543;SDS011;11438;52.044;8.716;2023-12-20T02:11:00;4.03;;;2.00;;
22543;SDS011;11438;52.044;8.716;2023-12-20T02:13:26;3.20;;;1.40;;
22543;SDS011;11438;52.044;8.716;2023-12-20T02:15:52;4.17;;;1.37;;
22543;SDS011;11438;52.044;8.716;2023-12-20T02:18:17;3.55;;;1.30;;
22543;SDS011;11438;52.044;8.716;2023-12-20T02:20:43;5.22;;;1.50;;
22543;SDS011;11438;52.044;8.716;2023-12-20T02:23:08;3.53;;;1.30;;
22543;SDS011;11438;52.044;8.716;2023-12-20T02:25:34;6.43;;;1.93;;
22543;SDS011;11438;52.044;8.716;2023-12-20T02:27:59;6.27;;;1.43;;
22543;SDS011;11438;52.044;8.716;2023-12-20T02:30:26;4.73;;;1.50;;
22543;SDS011;11438;52.044;8.716;2023-12-20T02:32:51;5.75;;;1.35;;
22543;SDS011;11438;52.044;8.716;2023-12-20T02:35:18;6.20;;;1.73;;
22543;SDS011;11438;52.044;8.716;2023-12-20T02:37:43;4.33;;;1.60;;
22543;SDS011;11438;52.044;8.716;2023-12-20T02:40:09;5.53;;;1.50;;
22543;SDS011;11438;52.044;8.716;2023-12-20T02:42:35;4.10;;;1.60;;
22543;SDS011;11438;52.044;8.716;2023-12-20T02:45:01;3.85;;;1.40;;
22543;SDS011;11438;52.044;8.716;2023-12-20T02:47:26;3.60;;;1.23;;
22543;SDS011;11438;52.044;8.716;2023-12-20T02:49:52;5.07;;;1.55;;
22543;SDS011;11438;52.044;8.716;2023-12-20T02:52:18;4.03;;;1.37;;
22543;SDS011;11438;52.044;8.716;2023-12-20T02:54:43;4.68;;;1.40;;
22543;SDS011;11438;52.044;8.716;2023-12-20T02:57:09;2.50;;;1.40;;
22543;SDS011;11438;52.044;8.716;2023-12-20T02:59:34;4.00;;;1.43;;
22543;SDS011;11438;52.044;8.716;2023-12-20T03:02:00;6.23;;;1.23;;
22543;SDS011;11438;52.044;8.716;2023-12-20T03:04:25;3.90;;;1.33;;
22543;SDS011;11438;52.044;8.716;2023-12-20T03:06:50;7.77;;;1.50;;
22543;SDS011;11438;52.044;8.716;2023-12-20T03:09:16;5.93;;;1.80;;
22543;SDS011;11438;52.044;8.716;2023-12-20T03:11:41;6.10;;;1.30;;
22543;SDS011;11438;52.044;8.716;2023-12-20T03:14:07;5.15;;;1.50;;
22543;SDS011;11438;52.044;8.716;2023-12-20T03:16:32;5.73;;;1.40;;
22543;SDS011;11438;52.044;8.716;2023-12-20T03:18:58;5.82;;;1.40;;
22543;SDS011;11438;52.044;8.716;2023-12-20T03:21:23;4.88;;;1.80;;
22543;SDS011;11438;52.044;8.716;2023-12-20T03:23:49;7.03;;;1.92;;
22543;SDS011;11438;52.044;8.716;2023-12-20T03:26:14;5.80;;;2.05;;
22543;SDS011;11438;52.044;8.716;2023-12-20T03:28:40;7.37;;;1.80;;
22543;SDS011;11438;52.044;8.716;2023-12-20T03:31:05;9.40;;;2.73;;
22543;SDS011;11438;52.044;8.716;2023-12-20T03:33:31;5.88;;;2.28;;
22543;SDS011;11438;52.044;8.716;2023-12-20T03:35:56;7.10;;;1.95;;
22543;SDS011;11438;52.044;8.716;2023-12-20T03:38:22;7.95;;;2.50;;
22543;SDS011;11438;52.044;8.716;2023-12-20T03:40:49;8.77;;;2.37;;
22543;SDS011;11438;52.044;8.716;2023-12-20T03:43:14;10.68;;;2.65;;
22543;SDS011;11438;52.044;8.716;2023-12-20T03:45:41;5.20;;;2.37;;
22543;SDS011;11438;52.044;8.716;2023-12-20T03:48:07;6.05;;;2.22;;
22543;SDS011;11438;52.044;8.716;2023-12-20T03:50:32;6.75;;;2.50;;
22543;SDS011;11438;52.044;8.716;2023-12-20T03:52:59;6.93;;;2.22;;
22543;SDS011;11438;52.044;8.716;2023-12-20T03:55:24;10.77;;;2.40;;
22543;SDS011;11438;52.044;8.716;2023-12-20T03:57:50;6.25;;;2.50;;
22543;SDS011;11438;52.044;8.716;2023-12-20T04:00:15;10.00;;;2.63;;
22543;SDS011;11438;52.044;8.716;2023-12-20T04:02:41;7.18;;;2.90;;
22543;SDS011;11438;52.044;8.716;2023-12-20T04:05:07;8.98;;;2.33;;
22543;SDS011;11438;52.044;8.716;2023-12-20T04:07:33;8.10;;;2.63;;
22543;SDS011;11438;52.044;8.716;2023-12-20T04:10:00;8.90;;;2.90;;
22543;SDS011;11438;52.044;8.716;2023-12-20T04:12:26;10.13;;;2.60;;
22543;SDS011;11438;52.044;8.716;2023-12-20T04:14:52;5.30;;;2.60;;
22543;SDS011;11438;52.044;8.716;2023-12-20T04:17:18;6.47;;;2.87;;
22543;SDS011;11438;52.044;8.716;2023-12-20T04:19:43;9.37;;;3.43;;
22543;SDS011;11438;52.044;8.716;2023-12-20T04:22:09;12.82;;;3.47;;
22543;SDS011;11438;52.044;8.716;2023-12-20T04:24:35;9.13;;;3.30;;
22543;SDS011;11438;52.044;8.716;2023-12-20T04:27:00;7.68;;;3.10;;
22543;SDS011;11438;52.044;8.716;2023-12-20T04:29:26;5.83;;;2.70;;
22543;SDS011;11438;52.044;8.716;2023-12-20T04:31:52;8.15;;;3.20;;
22543;SDS011;11438;52.044;8.716;2023-12-20T04:34:18;11.15;;;3.05;;
22543;SDS011;11438;52.044;8.716;2023-12-20T04:36:43;7.00;;;3.13;;
22543;SDS011;11438;52.044;8.716;2023-12-20T04:39:09;7.63;;;2.70;;
22543;SDS011;11438;52.044;8.716;2023-12-20T04:41:36;9.30;;;2.70;;
22543;SDS011;11438;52.044;8.716;2023-12-20T04:44:01;13.05;;;3.50;;
22543;SDS011;11438;52.044;8.716;2023-12-20T04:46:27;10.40;;;3.40;;
22543;SDS011;11438;52.044;8.716;2023-12-20T04:48:52;11.80;;;3.20;;
22543;SDS011;11438;52.044;8.716;2023-12-20T04:51:18;6.70;;;2.90;;
22543;SDS011;11438;52.044;8.716;2023-12-20T04:53:43;9.57;;;3.00;;
22543;SDS011;11438;52.044;8.716;2023-12-20T04:56:09;9.93;;;2.73;;
22543;SDS011;11438;52.044;8.716;2023-12-20T04:58:34;15.05;;;3.03;;
22543;SDS011;11438;52.044;8.716;2023-12-20T05:01:00;4.90;;;2.47;;
22543;SDS011;11438;52.044;8.716;2023-12-20T05:03:25;11.50;;;3.30;;
22543;SDS011;11438;52.044;8.716;2023-12-20T05:05:51;6.82;;;3.00;;
22543;SDS011;11438;52.044;8.716;2023-12-20T05:08:16;9.77;;;2.83;;
22543;SDS011;11438;52.044;8.716;2023-12-20T05:10:42;8.93;;;2.77;;
22543;SDS011;11438;52.044;8.716;2023-12-20T05:13:07;10.10;;;2.90;;
22543;SDS011;11438;52.044;8.716;2023-12-20T05:15:33;12.20;;;2.80;;
22543;SDS011;11438;52.044;8.716;2023-12-20T05:17:58;5.88;;;2.38;;
22543;SDS011;11438;52.044;8.716;2023-12-20T05:20:24;9.70;;;2.47;;
22543;SDS011;11438;52.044;8.716;2023-12-20T05:22:49;9.33;;;2.40;;
22543;SDS011;11438;52.044;8.716;2023-12-20T05:25:15;7.78;;;2.28;;
22543;SDS011;11438;52.044;8.716;2023-12-20T05:27:40;8.20;;;2.67;;
22543;SDS011;11438;52.044;8.716;2023-12-20T05:30:06;10.63;;;2.77;;
22543;SDS011;11438;52.044;8.716;2023-12-20T05:32:32;9.55;;;2.92;;
22543;SDS011;11438;52.044;8.716;2023-12-20T05:34:57;8.30;;;2.42;;
22543;SDS011;11438;52.044;8.716;2023-12-20T05:37:23;8.57;;;3.05;;
22543;SDS011;11438;52.044;8.716;2023-12-20T05:39:48;10.65;;;2.50;;
22543;SDS011;11438;52.044;8.716;2023-12-20T05:42:14;10.83;;;2.53;;
22543;SDS011;11438;52.044;8.716;2023-12-20T05:44:40;9.17;;;2.40;;
22543;SDS011;11438;52.044;8.716;2023-12-20T05:47:05;12.80;;;2.63;;
22543;SDS011;11438;52.044;8.716;2023-12-20T05:49:30;11.83;;;2.67;;
22543;SDS011;11438;52.044;8.716;2023-12-20T05:51:56;6.43;;;2.30;;
22543;SDS011;11438;52.044;8.716;2023-12-20T05:54:22;9.18;;;2.47;;
22543;SDS011;11438;52.044;8.716;2023-12-20T05:56:48;7.03;;;2.60;;
22543;SDS011;11438;52.044;8.716;2023-12-20T05:59:13;12.35;;;3.00;;
22543;SDS011;11438;52.044;8.716;2023-12-20T06:01:39;11.00;;;2.90;;
22543;SDS011;11438;52.044;8.716;2023-12-20T06:04:04;11.37;;;3.07;;
22543;SDS011;11438;52.044;8.716;2023-12-20T06:06:30;12.00;;;3.10;;
22543;SDS011;11438;52.044;8.716;2023-12-20T06:08:56;11.20;;;3.00;;
22543;SDS011;11438;52.044;8.716;2023-12-20T06:11:21;13.35;;;2.90;;
22543;SDS011;11438;52.044;8.716;2023-12-20T06:13:46;9.93;;;2.60;;
22543;SDS011;11438;52.044;8.716;2023-12-20T06:16:13;8.18;;;2.42;;
22543;SDS011;11438;52.044;8.716;2023-12-20T06:18:39;10.50;;;3.30;;
22543;SDS011;11438;52.044;8.716;2023-12-20T06:21:05;11.55;;;2.90;;
22543;SDS011;11438;52.044;8.716;2023-12-20T06:23:32;12.10;;;3.22;;
22543;SDS011;11438;52.044;8.716;2023-12-20T06:25:57;12.30;;;3.80;;
22543;SDS011;11438;52.044;8.716;2023-12-20T06:28:23;15.40;;;3.00;;
22543;SDS011;11438;52.044;8.716;2023-12-20T06:30:48;12.90;;;3.17;;
22543;SDS011;11438;52.044;8.716;2023-12-20T06:33:14;12.65;;;3.20;;
22543;SDS011;11438;52.044;8.716;2023-12-20T06:35:40;9.30;;;3.33;;
22543;SDS011;11438;52.044;8.716;2023-12-20T06:38:05;12.00;;;3.20;;
22543;SDS011;11438;52.044;8.716;2023-12-20T06:40:31;9.98;;;2.70;;
22543;SDS011;11438;52.044;8.716;2023-12-20T06:42:56;12.30;;;3.55;;
22543;SDS011;11438;52.044;8.716;2023-12-20T06:45:22;11.80;;;3.30;;
22543;SDS011;11438;52.044;8.716;2023-12-20T06:47:47;11.05;;;3.58;;
22543;SDS011;11438;52.044;8.716;2023-12-20T06:50:13;10.65;;;3.15;;
22543;SDS011;11438;52.044;8.716;2023-12-20T06:52:39;7.73;;;3.40;;
22543;SDS011;11438;52.044;8.716;2023-12-20T06:55:04;13.13;;;3.67;;
22543;SDS011;11438;52.044;8.716;2023-12-20T06:57:30;15.32;;;3.70;;
22543;SDS011;11438;52.044;8.716;2023-12-20T06:59:56;11.88;;;3.25;;
22543;SDS011;11438;52.044;8.716;2023-12-20T07:02:22;17.00;;;3.30;;
22543;SDS011;11438;52.044;8.716;2023-12-20T07:04:48;10.53;;;3.17;;
22543;SDS011;11438;52.044;8.716;2023-12-20T07:07:13;10.97;;;3.20;;
22543;SDS011;11438;52.044;8.716;2023-12-20T07:09:39;11.55;;;3.55;;
22543;SDS011;11438;52.044;8.716;2023-12-20T07:12:07;13.45;;;3.67;;
22543;SDS011;11438;52.044;8.716;2023-12-20T07:14:33;14.95;;;3.72;;
22543;SDS011;11438;52.044;8.716;2023-12-20T07:16:58;13.88;;;3.55;;
22543;SDS011;11438;52.044;8.716;2023-12-20T07:19:24;16.95;;;4.05;;
22543;SDS011;11438;52.044;8.716;2023-12-20T07:21:49;11.40;;;3.70;;
22543;SDS011;11438;52.044;8.716;2023-12-20T07:24:15;14.50;;;4.03;;
22543;SDS011;11438;52.044;8.716;2023-12-20T07:26:40;10.43;;;3.30;;
22543;SDS011;11438;52.044;8.716;2023-12-20T07:29:06;9.60;;;3.30;;
22543;SDS011;11438;52.044;8.716;2023-12-20T07:31:31;14.50;;;3.40;;
22543;SDS011;11438;52.044;8.716;2023-12-20T07:33:57;12.63;;;3.20;;
22543;SDS011;11438;52.044;8.716;2023-12-20T07:36:22;11.68;;;3.20;;
22543;SDS011;11438;52.044;8.716;2023-12-20T07:38:48;7.90;;;2.70;;
22543;SDS011;11438;52.044;8.716;2023-12-20T07:41:13;15.90;;;3.50;;
22543;SDS011;11438;52.044;8.716;2023-12-20T07:43:40;14.65;;;3.58;;
22543;SDS011;11438;52.044;8.716;2023-12-20T07:46:06;12.00;;;3.70;;
22543;SDS011;11438;52.044;8.716;2023-12-20T07:48:34;8.70;;;3.33;;
22543;SDS011;11438;52.044;8.716;2023-12-20T07:51:00;8.20;;;2.53;;
22543;SDS011;11438;52.044;8.716;2023-12-20T07:53:26;13.70;;;3.08;;
22543;SDS011;11438;52.044;8.716;2023-12-20T07:55:52;10.65;;;3.65;;
22543;SDS011;11438;52.044;8.716;2023-12-20T07:58:18;12.02;;;3.00;;
22543;SDS011;11438;52.044;8.716;2023-12-20T08:00:43;11.57;;;3.10;;
22543;SDS011;11438;52.044;8.716;2023-12-20T08:03:09;11.80;;;3.33;;
22543;SDS011;11438;52.044;8.716;2023-12-20T08:05:34;12.47;;;3.00;;
22543;SDS011;11438;52.044;8.716;2023-12-20T08:08:00;7.20;;;2.65;;
22543;SDS011;11438;52.044;8.716;2023-12-20T08:10:26;12.43;;;3.88;;
22543;SDS011;11438;52.044;8.716;2023-12-20T08:12:54;7.53;;;2.42;;
22543;SDS011;11438;52.044;8.716;2023-12-20T08:15:20;11.13;;;2.80;;
22543;SDS011;11438;52.044;8.716;2023-12-20T08:17:45;7.33;;;2.27;;
22543;SDS011;11438;52.044;8.716;2023-12-20T08:20:11;8.00;;;2.75;;
22543;SDS011;11438;52.044;8.716;2023-12-20T08:22:36;9.40;;;2.83;;
22543;SDS011;11438;52.044;8.716;2023-12-20T08:25:02;12.00;;;3.50;;
22543;SDS011;11438;52.044;8.716;2023-12-20T08:27:27;11.67;;;3.03;;
22543;SDS011;11438;52.044;8.716;2023-12-20T08:29:53;7.90;;;2.60;;
22543;SDS011;11438;52.044;8.716;2023-12-20T08:32:18;8.05;;;2.70;;
22543;SDS011;11438;52.044;8.716;2023-12-20T08:34:44;14.10;;;3.07;;
22543;SDS011;11438;52.044;8.716;2023-12-20T08:37:09;13.43;;;3.53;;
22543;SDS011;11438;52.044;8.716;2023-12-20T08:39:35;7.75;;;2.50;;
22543;SDS011;11438;52.044;8.716;2023-12-20T08:42:00;8.47;;;2.83;;
22543;SDS011;11438;52.044;8.716;2023-12-20T08:44:26;13.95;;;3.10;;
22543;SDS011;11438;52.044;8.716;2023-12-20T08:46:51;12.32;;;3.53;;
22543;SDS011;11438;52.044;8.716;2023-12-20T08:49:17;14.50;;;3.40;;
22543;SDS011;11438;52.044;8.716;2023-12-20T08:51:42;10.47;;;3.30;;
22543;SDS011;11438;52.044;8.716;2023-12-20T08:54:08;11.85;;;3.35;;
22543;SDS011;11438;52.044;8.716;2023-12-20T08:56:34;9.38;;;3.03;;
22543;SDS011;11438;52.044;8.716;2023-12-20T08:59:00;14.10;;;3.58;;
22543;SDS011;11438;52.044;8.716;2023-12-20T09:01:25;10.48;;;2.35;;
22543;SDS011;11438;52.044;8.716;2023-12-20T09:03:50;10.70;;;4.00;;
22543;SDS011;11438;52.044;8.716;2023-12-20T09:06:16;14.60;;;3.40;;
22543;SDS011;11438;52.044;8.716;2023-12-20T09:08:41;13.18;;;3.67;;
22543;SDS011;11438;52.044;8.716;2023-12-20T09:11:07;8.52;;;2.97;;
22543;SDS011;11438;52.044;8.716;2023-12-20T09:13:32;9.53;;;2.93;;
22543;SDS011;11438;52.044;8.716;2023-12-20T09:15:58;11.80;;;3.33;;
22543;SDS011;11438;52.044;8.716;2023-12-20T09:18:24;12.60;;;2.72;;
22543;SDS011;11438;52.044;8.716;2023-12-20T09:20:49;12.40;;;3.00;;
22543;SDS011;11438;52.044;8.716;2023-12-20T09:23:15;11.48;;;3.50;;
22543;SDS011;11438;52.044;8.716;2023-12-20T09:25:40;15.03;;;3.60;;
22543;SDS011;11438;52.044;8.716;2023-12-20T09:28:06;8.40;;;2.47;;
22543;SDS011;11438;52.044;8.716;2023-12-20T09:30:31;12.80;;;3.63;;
22543;SDS011;11438;52.044;8.716;2023-12-20T09:32:57;10.38;;;3.30;;
22543;SDS011;11438;52.044;8.716;2023-12-20T09:35:22;14.30;;;3.30;;
22543;SDS011;11438;52.044;8.716;2023-12-20T09:37:48;11.73;;;3.47;;
22543;SDS011;11438;52.044;8.716;2023-12-20T09:40:14;8.73;;;3.17;;
22543;SDS011;11438;52.044;8.716;2023-12-20T09:45:21;11.00;;;3.50;;
22543;SDS011;11438;52.044;8.716;2023-12-20T09:47:47;11.50;;;3.70;;
22543;SDS011;11438;52.044;8.716;2023-12-20T09:50:20;11.18;;;3.53;;
22543;SDS011;11438;52.044;8.716;2023-12-20T09:52:50;8.07;;;3.42;;
22543;SDS011;11438;52.044;8.716;2023-12-20T09:55:17;11.93;;;3.50;;
22543;SDS011;11438;52.044;8.716;2023-12-20T09:57:44;11.85;;;3.80;;
22543;SDS011;11438;52.044;8.716;2023-12-20T10:00:10;9.82;;;3.30;;
22543;SDS011;11438;52.044;8.716;2023-12-20T10:02:37;12.93;;;3.70;;
22543;SDS011;11438;52.044;8.716;2023-12-20T10:05:07;11.25;;;3.80;;
22543;SDS011;11438;52.044;8.716;2023-12-20T10:07:37;10.38;;;3.63;;
22543;SDS011;11438;52.044;8.716;2023-12-20T10:10:02;14.53;;;4.00;;
22543;SDS011;11438;52.044;8.716;2023-12-20T10:12:29;10.73;;;3.35;;
22543;SDS011;11438;52.044;8.716;2023-12-20T10:14:54;12.32;;;3.75;;
22543;SDS011;11438;52.044;8.716;2023-12-20T10:17:20;12.15;;;3.35;;
22543;SDS011;11438;52.044;8.716;2023-12-20T10:19:46;11.25;;;4.15;;
22543;SDS011;11438;52.044;8.716;2023-12-20T10:22:12;16.30;;;3.60;;
22543;SDS011;11438;52.044;8.716;2023-12-20T10:24:37;11.00;;;3.30;;
22543;SDS011;11438;52.044;8.716;2023-12-20T10:27:05;9.73;;;3.10;;
22543;SDS011;11438;52.044;8.716;2023-12-20T10:29:35;9.85;;;3.67;;
22543;SDS011;11438;52.044;8.716;2023-12-20T10:34:48;11.70;;;3.58;;
22543;SDS011;11438;52.044;8.716;2023-12-20T10:37:14;8.30;;;3.00;;
22543;SDS011;11438;52.044;8.716;2023-12-20T10:39:39;12.30;;;3.13;;
22543;SDS011;11438;52.044;8.716;2023-12-20T10:42:06;9.68;;;2.97;;
22543;SDS011;11438;52.044;8.716;2023-12-20T10:44:33;10.63;;;3.13;;
22543;SDS011;11438;52.044;8.716;2023-12-20T10:46:58;9.60;;;2.60;;
22543;SDS011;11438;52.044;8.716;2023-12-20T10:49:24;10.23;;;2.60;;
22543;SDS011;11438;52.044;8.716;2023-12-20T10:51:51;8.70;;;2.45;;
22543;SDS011;11438;52.044;8.716;2023-12-20T10:54:19;13.20;;;3.45;;
22543;SDS011;11438;52.044;8.716;2023-12-20T10:56:44;12.07;;;3.00;;
22543;SDS011;11438;52.044;8.716;2023-12-20T10:59:11;10.57;;;2.95;;
22543;SDS011;11438;52.044;8.716;2023-12-20T11:01:38;11.95;;;3.50;;
22543;SDS011;11438;52.044;8.716;2023-12-20T11:04:06;11.05;;;2.90;;
22543;SDS011;11438;52.044;8.716;2023-12-20T11:06:36;9.32;;;2.30;;
22543;SDS011;11438;52.044;8.716;2023-12-20T11:09:16;9.40;;;2.53;;
22543;SDS011;11438;52.044;8.716;2023-12-20T11:11:55;6.80;;;2.40;;
22543;SDS011;11438;52.044;8.716;2023-12-20T11:14:35;8.55;;;2.03;;
22543;SDS011;11438;52.044;8.716;2023-12-20T11:17:10;9.38;;;2.42;;
22543;SDS011;11438;52.044;8.716;2023-12-20T11:20:24;8.35;;;2.25;;
22543;SDS011;11438;52.044;8.716;2023-12-20T11:22:29;8.10;;;2.20;;
22543;SDS011;11438;52.044;8.716;2023-12-20T11:25:09;8.20;;;2.35;;
22543;SDS011;11438;52.044;8.716;2023-12-20T11:27:36;9.60;;;2.50;;
22543;SDS011;11438;52.044;8.716;2023-12-20T11:30:05;6.53;;;2.10;;
22543;SDS011;11438;52.044;8.716;2023-12-20T11:32:33;6.85;;;2.17;;
22543;SDS011;11438;52.044;8.716;2023-12-20T11:35:20;8.88;;;2.55;;
22543;SDS011;11438;52.044;8.716;2023-12-20T11:37:45;9.57;;;2.30;;
22543;SDS011;11438;52.044;8.716;2023-12-20T11:40:15;7.53;;;2.35;;
22543;SDS011;11438;52.044;8.716;2023-12-20T11:42:43;9.00;;;2.55;;
22543;SDS011;11438;52.044;8.716;2023-12-20T11:47:40;6.97;;;2.40;;
22543;SDS011;11438;52.044;8.716;2023-12-20T11:50:10;7.95;;;2.22;;
22543;SDS011;11438;52.044;8.716;2023-12-20T11:52:36;9.38;;;2.15;;
22543;SDS011;11438;52.044;8.716;2023-12-20T11:55:02;9.88;;;2.25;;
22543;SDS011;11438;52.044;8.716;2023-12-20T11:57:28;8.90;;;2.05;;
22543;SDS011;11438;52.044;8.716;2023-12-20T11:59:54;11.38;;;2.33;;
22543;SDS011;11438;52.044;8.716;2023-12-20T12:02:21;6.53;;;2.30;;
22543;SDS011;11438;52.044;8.716;2023-12-20T12:04:48;7.57;;;2.15;;
22543;SDS011;11438;52.044;8.716;2023-12-20T12:07:13;6.55;;;1.73;;
22543;SDS011;11438;52.044;8.716;2023-12-20T12:09:39;9.82;;;2.45;;
22543;SDS011;11438;52.044;8.716;2023-12-20T12:12:04;11.00;;;2.17;;
22543;SDS011;11438;52.044;8.716;2023-12-20T12:14:31;7.28;;;2.03;;
22543;SDS011;11438;52.044;8.716;2023-12-20T12:16:56;9.85;;;2.20;;
22543;SDS011;11438;52.044;8.716;2023-12-20T12:19:22;8.57;;;2.20;;
22543;SDS011;11438;52.044;8.716;2023-12-20T12:21:49;7.65;;;1.95;;
22543;SDS011;11438;52.044;8.716;2023-12-20T12:24:19;5.22;;;1.88;;
22543;SDS011;11438;52.044;8.716;2023-12-20T12:26:50;7.30;;;2.05;;
22543;SDS011;11438;52.044;8.716;2023-12-20T12:29:16;7.28;;;1.83;;
22543;SDS011;11438;52.044;8.716;2023-12-20T12:31:42;6.40;;;1.90;;
22543;SDS011;11438;52.044;8.716;2023-12-20T12:34:07;8.15;;;2.33;;
22543;SDS011;11438;52.044;8.716;2023-12-20T12:36:34;9.13;;;2.00;;
22543;SDS011;11438;52.044;8.716;2023-12-20T12:39:02;6.00;;;1.48;;
22543;SDS011;11438;52.044;8.716;2023-12-20T12:41:29;10.48;;;1.60;;
22543;SDS011;11438;52.044;8.716;2023-12-20T12:43:55;7.28;;;2.00;;
22543;SDS011;11438;52.044;8.716;2023-12-20T12:46:20;7.60;;;2.38;;
22543;SDS011;11438;52.044;8.716;2023-12-20T12:48:47;6.15;;;1.48;;
22543;SDS011;11438;52.044;8.716;2023-12-20T12:51:14;10.02;;;2.03;;
22543;SDS011;11438;52.044;8.716;2023-12-20T12:53:39;6.60;;;1.90;;
22543;SDS011;11438;52.044;8.716;2023-12-20T12:56:05;6.18;;;1.88;;
22543;SDS011;11438;52.044;8.716;2023-12-20T12:58:32;10.15;;;2.08;;
22543;SDS011;11438;52.044;8.716;2023-12-20T13:00:57;9.35;;;2.10;;
22543;SDS011;11438;52.044;8.716;2023-12-20T13:03:23;8.68;;;2.00;;
22543;SDS011;11438;52.044;8.716;2023-12-20T13:05:49;8.95;;;1.90;;
22543;SDS011;11438;52.044;8.716;2023-12-20T13:08:15;11.05;;;2.10;;
22543;SDS011;11438;52.044;8.716;2023-12-20T13:10:40;9.25;;;2.00;;
22543;SDS011;11438;52.044;8.716;2023-12-20T13:13:06;5.97;;;1.70;;
22543;SDS011;11438;52.044;8.716;2023-12-20T13:15:32;5.88;;;2.00;;
22543;SDS011;11438;52.044;8.716;2023-12-20T13:17:57;5.00;;;1.50;;
22543;SDS011;11438;52.044;8.716;2023-12-20T13:20:23;4.80;;;0.85;;
22543;SDS011;11438;52.044;8.716;2023-12-20T13:22:48;4.25;;;1.17;;
22543;SDS011;11438;52.044;8.716;2023-12-20T13:25:14;3.00;;;0.90;;
22543;SDS011;11438;52.044;8.716;2023-12-20T13:27:39;2.20;;;0.80;;
22543;SDS011;11438;52.044;8.716;2023-12-20T13:30:06;3.17;;;0.70;;
22543;SDS011;11438;52.044;8.716;2023-12-20T13:32:32;2.88;;;0.93;;
22543;SDS011;11438;52.044;8.716;2023-12-20T13:34:57;2.45;;;0.68;;
22543;SDS011;11438;52.044;8.716;2023-12-20T13:37:23;3.28;;;0.82;;
22543;SDS011;11438;52.044;8.716;2023-12-20T13:39:48;2.75;;;0.85;;
22543;SDS011;11438;52.044;8.716;2023-12-20T13:42:14;2.08;;;0.70;;
22543;SDS011;11438;52.044;8.716;2023-12-20T13:44:39;3.43;;;0.83;;
22543;SDS011;11438;52.044;8.716;2023-12-20T13:47:05;1.80;;;0.63;;
22543;SDS011;11438;52.044;8.716;2023-12-20T13:49:31;2.13;;;0.77;;
22543;SDS011;11438;52.044;8.716;2023-12-20T13:51:57;2.73;;;0.80;;
22543;SDS011;11438;52.044;8.716;2023-12-20T13:54:23;2.80;;;0.77;;
22543;SDS011;11438;52.044;8.716;2023-12-20T13:56:49;3.13;;;0.85;;
22543;SDS011;11438;52.044;8.716;2023-12-20T13:59:14;4.13;;;0.93;;
22543;SDS011;11438;52.044;8.716;2023-12-20T14:01:40;4.68;;;1.13;;
22543;SDS011;11438;52.044;8.716;2023-12-20T14:04:06;3.47;;;0.90;;
22543;SDS011;11438;52.044;8.716;2023-12-20T14:06:32;4.40;;;0.65;;
22543;SDS011;11438;52.044;8.716;2023-12-20T14:08:57;2.10;;;0.70;;
22543;SDS011;11438;52.044;8.716;2023-12-20T14:11:25;3.08;;;1.20;;
22543;SDS011;11438;52.044;8.716;2023-12-20T14:13:51;3.63;;;0.70;;
22543;SDS011;11438;52.044;8.716;2023-12-20T14:16:16;3.88;;;0.70;;
22543;SDS011;11438;52.044;8.716;2023-12-20T14:18:42;4.50;;;1.10;;
22543;SDS011;11438;52.044;8.716;2023-12-20T14:21:07;6.13;;;1.00;;
22543;SDS011;11438;52.044;8.716;2023-12-20T14:23:33;4.60;;;0.93;;
22543;SDS011;11438;52.044;8.716;2023-12-20T14:25:58;3.50;;;0.80;;
22543;SDS011;11438;52.044;8.716;2023-12-20T14:28:24;2.43;;;0.60;;
22543;SDS011;11438;52.044;8.716;2023-12-20T14:30:50;2.97;;;0.80;;
22543;SDS011;11438;52.044;8.716;2023-12-20T14:33:16;3.75;;;0.77;;
22543;SDS011;11438;52.044;8.716;2023-12-20T14:35:41;1.87;;;0.53;;
22543;SDS011;11438;52.044;8.716;2023-12-20T14:38:07;5.67;;;0.83;;
22543;SDS011;11438;52.044;8.716;2023-12-20T14:40:33;5.10;;;1.20;;
22543;SDS011;11438;52.044;8.716;2023-12-20T14:42:58;6.10;;;1.20;;
22543;SDS011;11438;52.044;8.716;2023-12-20T14:45:25;2.50;;;0.70;;